createdAt,value
2023-02-19T00:00:18.030Z,78891.75
2023-02-19T00:02:49.317Z,78897.19
2023-02-19T00:05:18.239Z,78909.81
2023-02-19T00:07:46.850Z,78893.03
2023-02-19T00:10:16.025Z,78877.84
2023-02-19T00:12:45.033Z,78906.91
2023-02-19T00:15:13.878Z,78875.34
2023-02-19T00:17:42.755Z,78905.00
2023-02-19T00:20:12.006Z,78874.16
2023-02-19T00:22:40.735Z,78904.47
2023-02-19T00:25:09.832Z,78878.69
2023-02-19T00:27:38.588Z,78888.53
2023-02-19T00:30:08.072Z,78871.41
2023-02-19T00:32:37.167Z,78860.84
2023-02-19T00:35:06.348Z,78888.41
2023-02-19T00:37:34.948Z,78892.34
2023-02-19T00:40:07.106Z,78898.28
2023-02-19T00:42:36.196Z,78893.16
2023-02-19T00:45:05.814Z,78897.66
2023-02-19T00:47:35.302Z,78862.66
2023-02-19T00:50:04.110Z,78886.78
2023-02-19T00:52:33.034Z,78900.66
2023-02-19T00:55:01.853Z,78899.31
2023-02-19T00:57:31.102Z,78889.56
2023-02-19T01:00:00.051Z,78902.25
2023-02-19T01:02:29.217Z,78894.25
2023-02-19T01:04:58.937Z,78919.16
2023-02-19T01:07:27.984Z,78853.28
2023-02-19T01:09:56.572Z,78918.47
2023-02-19T01:12:26.911Z,78902.09
2023-02-19T01:14:56.740Z,78921.41
2023-02-19T01:17:26.174Z,78940.91
2023-02-19T01:19:54.942Z,78922.84
2023-02-19T01:22:23.652Z,78932.31
2023-02-19T01:24:53.290Z,78953.78
2023-02-19T01:27:22.530Z,78947.97
2023-02-19T01:29:51.787Z,78978.19
2023-02-19T01:32:20.469Z,78953.22
2023-02-19T01:34:49.805Z,78968.34
2023-02-19T01:37:19.361Z,78934.97
2023-02-19T01:39:49.213Z,78956.31
2023-02-19T01:42:18.777Z,78962.53
2023-02-19T01:44:47.591Z,78976.91
2023-02-19T01:47:19.833Z,78965.56
2023-02-19T01:49:58.724Z,78963.56
2023-02-19T01:52:37.442Z,78967.09
2023-02-19T01:55:13.828Z,78962.41
2023-02-19T01:57:49.661Z,78971.84
2023-02-19T02:00:19.419Z,78989.75
2023-02-19T02:02:52.725Z,78995.22
2023-02-19T02:05:46.255Z,78982.88
2023-02-19T02:08:35.012Z,78995.22
2023-02-19T02:11:05.101Z,79003.25
2023-02-19T02:13:36.471Z,79022.06
2023-02-19T02:16:08.018Z,79022.84
2023-02-19T02:18:57.798Z,79017.91
2023-02-19T02:21:51.152Z,79033.94
2023-02-19T02:24:50.874Z,79028.22
2023-02-19T02:27:35.235Z,79018.59
2023-02-19T02:30:10.092Z,79037.28
2023-02-19T02:32:54.539Z,79037.34
2023-02-19T02:35:31.979Z,79035.94
2023-02-19T02:38:06.119Z,79021.16
2023-02-19T02:40:36.113Z,79039.47
2023-02-19T02:43:04.823Z,79036.13
2023-02-19T02:45:37.983Z,79043.22
2023-02-19T02:49:05.051Z,79033.50
2023-02-19T02:51:45.123Z,79033.66
2023-02-19T02:54:42.716Z,79042.16
2023-02-19T02:57:16.128Z,79022.03
2023-02-19T02:59:50.360Z,79039.72
2023-02-19T03:02:29.752Z,79039.09
2023-02-19T03:05:39.082Z,79048.38
2023-02-19T03:08:14.973Z,79035.63
2023-02-19T03:11:21.730Z,79070.13
2023-02-19T03:14:17.443Z,79069.06
2023-02-19T03:17:07.602Z,79062.16
2023-02-19T03:19:43.043Z,79065.56
2023-02-19T03:22:42.966Z,79026.72
2023-02-19T03:25:38.502Z,79044.13
2023-02-19T03:28:11.997Z,79059.56
2023-02-19T03:30:48.845Z,79052.41
2023-02-19T03:33:23.734Z,79058.53
2023-02-19T03:36:02.577Z,79064.97
2023-02-19T03:38:53.190Z,79061.69
2023-02-19T03:41:33.321Z,79063.19
2023-02-19T03:44:29.409Z,79028.44
2023-02-19T03:47:11.743Z,79057.88
2023-02-19T03:49:50.936Z,79065.28
2023-02-19T03:52:49.219Z,79056.06
2023-02-19T03:55:23.278Z,79061.91
2023-02-19T03:58:13.392Z,79054.31
2023-02-19T04:00:59.913Z,79038.25
2023-02-19T04:03:32.376Z,79056.44
2023-02-19T04:06:05.590Z,79046.66
2023-02-19T04:08:38.123Z,79046.81
2023-02-19T04:11:09.107Z,79061.22
2023-02-19T04:13:46.017Z,79066.97
2023-02-19T04:16:22.098Z,79058.50
2023-02-19T04:18:55.470Z,79047.44
2023-02-19T04:21:26.038Z,79057.75
2023-02-19T04:23:55.419Z,79070.03
2023-02-19T04:26:24.923Z,79066.63
2023-02-19T04:28:55.410Z,79075.94
2023-02-19T04:31:29.129Z,79041.94
2023-02-19T04:33:58.156Z,79053.00
2023-02-19T04:36:27.274Z,79070.56
2023-02-19T04:38:56.350Z,79068.09
2023-02-19T04:41:25.454Z,79057.38
2023-02-19T04:43:54.492Z,79063.94
2023-02-19T04:46:24.429Z,79053.13
2023-02-19T04:48:53.680Z,79048.72
2023-02-19T04:51:22.290Z,79072.72
2023-02-19T04:53:58.072Z,79069.16
2023-02-19T04:56:27.090Z,79052.84
2023-02-19T04:58:57.191Z,79044.44
2023-02-19T05:01:26.717Z,79044.78
2023-02-19T05:03:58.251Z,79045.38
2023-02-19T05:06:28.968Z,79062.50
2023-02-19T05:08:57.953Z,79041.84
2023-02-19T05:11:26.614Z,79030.22
2023-02-19T05:13:57.846Z,79014.09
2023-02-19T05:16:27.127Z,79042.03
2023-02-19T05:18:55.906Z,79050.75
2023-02-19T05:21:25.550Z,79036.66
2023-02-19T05:23:57.552Z,79051.78
2023-02-19T05:26:27.642Z,79048.84
2023-02-19T05:28:56.525Z,79053.00
2023-02-19T05:31:25.700Z,79046.53
2023-02-19T05:33:58.028Z,79047.88
2023-02-19T05:36:27.173Z,79042.34
2023-02-19T05:38:58.182Z,79032.00
2023-02-19T05:41:29.904Z,79026.22
2023-02-19T05:43:59.374Z,79041.75
2023-02-19T05:46:32.737Z,79044.63
2023-02-19T05:49:02.209Z,79044.66
2023-02-19T05:51:31.086Z,79028.84
2023-02-19T05:54:00.318Z,79031.63
2023-02-19T05:56:42.944Z,79038.59
2023-02-19T05:59:22.037Z,79048.63
2023-02-19T06:01:53.084Z,79028.47
2023-02-19T06:04:23.087Z,78998.06
2023-02-19T06:06:52.146Z,79034.16
2023-02-19T06:09:20.965Z,79014.66
2023-02-19T06:11:49.853Z,79027.22
2023-02-19T06:14:18.666Z,79011.59
2023-02-19T06:16:47.363Z,79022.72
2023-02-19T06:19:16.776Z,79019.22
2023-02-19T06:21:45.810Z,79011.19
2023-02-19T06:24:15.070Z,79002.72
2023-02-19T06:26:44.495Z,79005.09
2023-02-19T06:29:13.918Z,78993.94
2023-02-19T06:31:42.956Z,79017.19
2023-02-19T06:34:12.314Z,79007.50
2023-02-19T06:36:41.674Z,79003.25
2023-02-19T06:39:11.420Z,78989.59
2023-02-19T06:41:40.263Z,78990.13
2023-02-19T06:44:09.149Z,79012.53
2023-02-19T06:46:38.180Z,78993.81
2023-02-19T06:49:07.453Z,78985.00
2023-02-19T06:51:36.269Z,78996.38
2023-02-19T06:54:05.328Z,78987.28
2023-02-19T06:56:36.629Z,78988.13
2023-02-19T06:59:08.760Z,78994.75
2023-02-19T07:01:38.568Z,78989.53
2023-02-19T07:04:08.534Z,78987.78
2023-02-19T07:06:39.952Z,78987.69
2023-02-19T07:09:10.280Z,78972.53
2023-02-19T07:11:41.122Z,78978.34
2023-02-19T07:14:15.183Z,78977.63
2023-02-19T07:16:44.784Z,78982.38
2023-02-19T07:19:13.549Z,78992.66
2023-02-19T07:21:43.374Z,78976.97
2023-02-19T07:24:12.254Z,78947.31
2023-02-19T07:26:40.820Z,78971.59
2023-02-19T07:29:12.229Z,78962.84
2023-02-19T07:31:41.358Z,78972.31
2023-02-19T07:34:09.897Z,78966.88
2023-02-19T07:36:39.308Z,78957.88
2023-02-19T07:39:10.107Z,78970.00
2023-02-19T07:41:39.079Z,78967.19
2023-02-19T07:44:08.547Z,78939.78
2023-02-19T07:46:37.435Z,78941.38
2023-02-19T07:49:08.051Z,78931.50
2023-02-19T07:51:38.735Z,78935.28
2023-02-19T07:54:09.008Z,78950.31
2023-02-19T07:56:37.650Z,78917.47
2023-02-19T07:59:07.039Z,78940.16
2023-02-19T08:01:55.236Z,78928.03
2023-02-19T08:04:24.040Z,78946.50
2023-02-19T08:06:54.662Z,78915.50
2023-02-19T08:09:23.678Z,78936.81
2023-02-19T08:12:10.936Z,78932.34
2023-02-19T08:14:40.892Z,78942.06
2023-02-19T08:17:10.033Z,78921.25
2023-02-19T08:19:38.921Z,78913.91
2023-02-19T08:22:07.934Z,78921.31
2023-02-19T08:24:39.055Z,78901.47
2023-02-19T08:27:09.028Z,78914.13
2023-02-19T08:29:37.785Z,78894.88
2023-02-19T08:32:06.557Z,78882.78
2023-02-19T08:34:35.854Z,78890.28
2023-02-19T08:37:04.581Z,78875.06
2023-02-19T08:39:34.474Z,78868.84
2023-02-19T08:42:03.814Z,78880.59
2023-02-19T08:44:33.594Z,78857.19
2023-02-19T08:47:03.296Z,78864.47
2023-02-19T08:49:33.132Z,78859.81
2023-02-19T08:52:03.060Z,78866.94
2023-02-19T08:54:32.577Z,78867.28
2023-02-19T08:57:02.482Z,78856.63
2023-02-19T08:59:32.270Z,78834.16
2023-02-19T09:02:01.931Z,78854.41
2023-02-19T09:04:31.481Z,78843.50
2023-02-19T09:07:00.393Z,78850.59
2023-02-19T09:09:29.292Z,78852.34
2023-02-19T09:11:58.834Z,78830.47
2023-02-19T09:14:27.850Z,78849.31
2023-02-19T09:16:56.514Z,78831.47
2023-02-19T09:19:25.312Z,78830.81
2023-02-19T09:21:53.932Z,78820.88
2023-02-19T09:24:23.024Z,78834.34
2023-02-19T09:26:56.572Z,78818.56
2023-02-19T09:29:27.916Z,78812.19
2023-02-19T09:32:01.460Z,78832.44
2023-02-19T09:34:30.669Z,78819.31
2023-02-19T09:36:59.376Z,78844.69
2023-02-19T09:39:28.529Z,78793.66
2023-02-19T09:42:01.810Z,78831.41
2023-02-19T09:44:36.788Z,78820.50
2023-02-19T09:47:10.286Z,78839.19
2023-02-19T09:49:52.311Z,78834.81
2023-02-19T09:52:49.244Z,78837.28
2023-02-19T09:55:46.214Z,78839.84
2023-02-19T09:58:32.057Z,78846.44
2023-02-19T10:01:04.840Z,78844.25
2023-02-19T10:03:42.228Z,78837.63
2023-02-19T10:06:25.887Z,78841.31
2023-02-19T10:09:07.773Z,78847.13
2023-02-19T10:11:37.552Z,78843.19
2023-02-19T10:14:10.643Z,78811.59
2023-02-19T10:16:46.632Z,78829.78
2023-02-19T10:22:05.041Z,78825.94
2023-02-19T10:24:38.569Z,78828.94
2023-02-19T10:27:13.711Z,78814.13
2023-02-19T10:29:47.230Z,78824.94
2023-02-19T10:32:28.367Z,78826.31
2023-02-19T10:35:13.873Z,78829.13
2023-02-19T10:37:52.151Z,78828.47
2023-02-19T10:40:25.882Z,78827.34
2023-02-19T10:42:59.876Z,78821.94
2023-02-19T10:45:49.950Z,78817.34
2023-02-19T10:48:31.573Z,78794.50
2023-02-19T10:51:05.923Z,78816.75
2023-02-19T10:53:41.811Z,78805.63
2023-02-19T10:56:17.956Z,78825.06
2023-02-19T10:58:48.227Z,78808.22
2023-02-19T11:01:22.448Z,78823.56
2023-02-19T11:03:54.095Z,78823.22
2023-02-19T11:06:27.896Z,78801.69
2023-02-19T11:09:03.347Z,78838.06
2023-02-19T11:11:39.186Z,78824.53
2023-02-19T11:14:20.758Z,78818.63
2023-02-19T11:16:58.697Z,78833.22
2023-02-19T11:19:43.851Z,78822.97
2023-02-19T11:22:39.944Z,78833.91
2023-02-19T11:25:15.558Z,78833.03
2023-02-19T11:28:03.534Z,78838.09
2023-02-19T11:30:36.106Z,78836.06
2023-02-19T11:33:17.834Z,78834.69
2023-02-19T11:35:48.365Z,78838.03
2023-02-19T11:38:20.333Z,78822.38
2023-02-19T11:41:11.980Z,78834.53
2023-02-19T11:43:44.144Z,78842.06
2023-02-19T11:46:43.216Z,78832.63
2023-02-19T11:49:47.131Z,78833.91
2023-02-19T11:52:29.199Z,78834.78
2023-02-19T11:55:07.373Z,78836.25
2023-02-19T11:57:48.631Z,78832.91
2023-02-19T12:00:30.721Z,78801.22
2023-02-19T12:03:25.053Z,78834.38
2023-02-19T12:06:14.743Z,78800.59
2023-02-19T12:09:01.693Z,78833.13
2023-02-19T12:12:00.395Z,78826.97
2023-02-19T12:14:41.142Z,78823.34
2023-02-19T12:17:31.468Z,78827.22
2023-02-19T12:20:07.868Z,78824.09
2023-02-19T12:23:07.846Z,78816.34
2023-02-19T12:26:19.950Z,78812.53
2023-02-19T12:29:04.001Z,78825.88
2023-02-19T12:31:43.681Z,78804.34
2023-02-19T12:34:31.308Z,78794.53
2023-02-19T12:37:18.605Z,78824.34
2023-02-19T12:40:23.976Z,78827.81
2023-02-19T12:43:07.991Z,78813.56
2023-02-19T12:45:59.097Z,78829.41
2023-02-19T12:48:49.645Z,78830.81
2023-02-19T12:51:24.381Z,78809.94
2023-02-19T12:53:59.102Z,78798.06
2023-02-19T12:56:40.817Z,78832.38
2023-02-19T13:00:06.040Z,78836.47
2023-02-19T13:02:37.620Z,78821.41
2023-02-19T13:05:34.395Z,78828.63
2023-02-19T13:08:15.067Z,78812.00
2023-02-19T13:10:52.729Z,78830.53
2023-02-19T13:13:57.302Z,78831.94
2023-02-19T13:16:27.352Z,78813.06
2023-02-19T13:19:03.262Z,78795.84
2023-02-19T13:21:57.288Z,78808.38
2023-02-19T13:24:30.702Z,78838.81
2023-02-19T13:27:05.772Z,78843.13
2023-02-19T13:30:07.332Z,78840.41
2023-02-19T13:32:54.493Z,78844.38
2023-02-19T13:35:23.906Z,78852.47
2023-02-19T13:37:54.721Z,78841.25
2023-02-19T13:40:26.758Z,78855.78
2023-02-19T13:42:59.694Z,78846.19
2023-02-19T13:45:43.639Z,78828.31
2023-02-19T13:48:26.789Z,78849.84
2023-02-19T13:51:14.614Z,78851.72
2023-02-19T13:53:46.582Z,78851.06
2023-02-19T13:56:34.925Z,78858.66
2023-02-19T13:59:26.700Z,78856.72
2023-02-19T14:01:59.037Z,78852.78
2023-02-19T14:04:54.634Z,78862.69
2023-02-19T14:07:37.949Z,78846.97
2023-02-19T14:10:13.812Z,78866.16
2023-02-19T14:12:42.762Z,78870.41
2023-02-19T14:15:27.464Z,78871.19
2023-02-19T14:17:58.174Z,78848.66
2023-02-19T14:20:44.032Z,78870.41
2023-02-19T14:23:25.479Z,78867.38
2023-02-19T14:26:05.191Z,78877.03
2023-02-19T14:28:42.716Z,78871.75
2023-02-19T14:31:18.137Z,78885.81
2023-02-19T14:33:53.901Z,78883.19
2023-02-19T14:36:49.939Z,78887.00
2023-02-19T14:39:24.400Z,78873.91
2023-02-19T14:41:58.322Z,78892.81
2023-02-19T14:44:51.014Z,78856.59
2023-02-19T14:47:24.572Z,78893.16
2023-02-19T14:50:01.625Z,78870.91
2023-02-19T14:52:46.554Z,78889.44
2023-02-19T14:55:35.925Z,78893.03
2023-02-19T14:58:17.041Z,78882.03
2023-02-19T15:00:45.823Z,78895.88
2023-02-19T15:03:45.601Z,78882.44
2023-02-19T15:06:19.833Z,78860.41
2023-02-19T15:08:52.658Z,78881.91
2023-02-19T15:11:26.244Z,78856.06
2023-02-19T15:14:07.724Z,78871.16
2023-02-19T15:16:38.748Z,78878.22
2023-02-19T15:19:10.792Z,78889.47
2023-02-19T15:21:45.575Z,78874.25
2023-02-19T15:24:17.857Z,78901.41
2023-02-19T15:26:52.061Z,78896.66
2023-02-19T15:29:24.371Z,78895.28
2023-02-19T15:31:59.059Z,78895.19
2023-02-19T15:34:33.338Z,78901.00
2023-02-19T15:37:07.797Z,78890.47
2023-02-19T15:39:41.380Z,78854.19
2023-02-19T15:42:17.675Z,78878.91
2023-02-19T15:45:07.613Z,78883.56
2023-02-19T15:47:44.774Z,78870.41
2023-02-19T15:50:20.893Z,78875.56
2023-02-19T15:52:59.807Z,78859.31
2023-02-19T15:56:07.886Z,78890.47
2023-02-19T15:58:54.634Z,78854.28
2023-02-19T16:01:30.837Z,78862.91
2023-02-19T16:04:00.226Z,78873.34
2023-02-19T16:06:29.816Z,78849.72
2023-02-19T16:09:20.875Z,78859.84
2023-02-19T16:11:55.725Z,78878.13
2023-02-19T16:14:34.090Z,78847.06
2023-02-19T16:17:17.574Z,78894.72
2023-02-19T16:20:04.574Z,78892.75
2023-02-19T16:22:45.211Z,78899.31
2023-02-19T16:25:28.058Z,78895.19
2023-02-19T16:27:57.851Z,78872.00
2023-02-19T16:30:35.470Z,78901.19
2023-02-19T16:33:23.577Z,78893.97
2023-02-19T16:35:53.270Z,78884.00
2023-02-19T16:38:22.188Z,78879.81
2023-02-19T16:40:55.142Z,78879.66
2023-02-19T16:43:33.792Z,78885.34
2023-02-19T16:46:03.309Z,78894.22
2023-02-19T16:48:32.493Z,78886.50
2023-02-19T16:51:02.713Z,78889.84
2023-02-19T16:53:34.636Z,78889.19
2023-02-19T16:56:04.596Z,78876.81
2023-02-19T16:58:33.434Z,78895.28
2023-02-19T17:01:02.749Z,78892.97
2023-02-19T17:03:32.015Z,78878.00
2023-02-19T17:06:01.287Z,78886.66
2023-02-19T17:08:39.738Z,78884.34
2023-02-19T17:11:13.873Z,78853.56
2023-02-19T17:13:44.311Z,78897.06
2023-02-19T17:16:25.608Z,78862.00
2023-02-19T17:18:55.865Z,78870.34
2023-02-19T17:21:28.663Z,78883.56
2023-02-19T17:23:58.279Z,78864.16
2023-02-19T17:26:32.325Z,78864.16
2023-02-19T17:29:04.653Z,78879.22
2023-02-19T17:31:35.137Z,78879.06
2023-02-19T17:34:04.623Z,78855.25
2023-02-19T17:36:34.269Z,78880.81
2023-02-19T17:39:05.818Z,78882.88
2023-02-19T17:41:35.002Z,78855.28
2023-02-19T17:44:03.752Z,78867.03
2023-02-19T17:46:33.086Z,78863.69
2023-02-19T17:49:02.493Z,78865.78
2023-02-19T17:51:32.092Z,78859.16
2023-02-19T17:54:00.811Z,78840.91
2023-02-19T17:56:30.095Z,78852.41
2023-02-19T17:59:00.961Z,78868.19
2023-02-19T18:01:30.044Z,78867.78
2023-02-19T18:03:58.961Z,78858.97
2023-02-19T18:06:27.768Z,78854.19
2023-02-19T18:08:56.672Z,78850.09
2023-02-19T18:11:25.939Z,78830.91
2023-02-19T18:13:54.783Z,78849.31
2023-02-19T18:16:24.124Z,78846.19
2023-02-19T18:18:53.039Z,78810.56
2023-02-19T18:21:25.186Z,78839.00
2023-02-19T18:23:57.663Z,78815.47
